Vaughn, Oregon
Current Conditions -  °F | °C
As of 2:31 AM on Saturday 22 Nov 2014 (Local Time) from KEUG Reporting Station
Broken Clouds Broken Clouds  
Wind Chill: 50°   Ceiling: 2800
Heat Index: 50°   Visibility: 10mi
Dew Point: 48°   Wind: 3mph
Humidity: 93%   Direction: 210°SSW
Pressure: 29.78"   Gusts: NA
Location:  43.9317°N, 123.417°W
Report Text: KEUG 221031Z AUTO 21003KT 10SM SCT022 BKN028 BKN033 10/09 A2978 RMK AO2 T01000089
Loading
Personal Weather Stations






























Interactive Weather Map New forecast layout! Learn more

10-Day Weather Forecast

Advertisements
Track Severe Weather on mobile